Time;durP1;ratioP1;P1;durP2;ratioP2;P2;SDS_P1;SDS_P2;PMS_P1;PMS_P2;Temp;Humidity;BMP_temperature;BMP_pressure;BME280_temperature;BME280_humidity;BME280_pressure;Samples;Min_cycle;Max_cycle;Signal;HPM_P1;HPM_P2
2022/09/11 00:00:38;;;;;;;56.95;35.33;;;14.40;99.90;;;;;;4895898;29;20411;-85
2022/09/11 00:03:04;;;;;;;45.20;30.25;;;14.40;99.90;;;;;;4913299;29;20059;-86
2022/09/11 00:05:30;;;;;;;45.97;28.83;;;14.40;99.90;;;;;;4896255;29;20126;-85
2022/09/11 00:07:56;;;;;;;39.05;26.90;;;14.40;99.90;;;;;;4912039;29;20046;-85
2022/09/11 00:10:23;;;;;;;46.40;28.67;;;14.30;99.90;;;;;;4912729;29;20074;-85
2022/09/11 00:12:49;;;;;;;33.40;25.20;;;14.30;99.90;;;;;;4912845;29;20059;-86
2022/09/11 00:15:16;;;;;;;27.33;21.95;;;14.20;99.90;;;;;;4911339;29;20035;-85
2022/09/11 00:17:41;;;;;;;28.67;22.05;;;14.20;99.90;;;;;;4878299;29;20170;-86
2022/09/11 00:20:08;;;;;;;30.38;22.67;;;14.10;99.90;;;;;;4892887;29;20139;-85
2022/09/11 00:22:33;;;;;;;29.70;22.38;;;14.10;99.90;;;;;;4877358;29;20052;-85
2022/09/11 00:24:59;;;;;;;35.60;26.25;;;14.00;99.90;;;;;;4878162;29;20108;-85
2022/09/11 00:27:25;;;;;;;25.45;20.67;;;14.00;99.90;;;;;;4893392;29;20048;-86
2022/09/11 00:29:50;;;;;;;30.17;21.70;;;14.10;99.90;;;;;;4893659;29;20048;-85
2022/09/11 00:32:16;;;;;;;21.02;15.90;;;13.90;99.90;;;;;;4878286;29;20480;-86
2022/09/11 00:34:42;;;;;;;14.73;11.20;;;13.90;99.90;;;;;;4892837;29;20051;-85
2022/09/11 00:37:08;;;;;;;14.55;9.75;;;13.80;99.90;;;;;;4892648;29;20108;-86
2022/09/11 00:39:34;;;;;;;32.47;18.48;;;13.80;99.90;;;;;;4893472;29;20520;-86
2022/09/11 00:42:00;;;;;;;88.32;18.20;;;13.80;99.90;;;;;;4879945;29;20092;-86
2022/09/11 00:44:27;;;;;;;26.67;18.15;;;13.70;99.90;;;;;;4880559;29;20758;-86
2022/09/11 00:46:55;;;;;;;23.73;18.60;;;13.70;99.90;;;;;;4897596;29;20056;-86
2022/09/11 00:49:35;;;;;;;28.92;21.20;;;13.60;99.90;;;;;;4896125;29;20080;-87
2022/09/11 00:52:09;;;;;;;44.78;28.90;;;13.60;99.90;;;;;;4890328;29;20051;-86
2022/09/11 00:54:42;;;;;;;32.17;23.25;;;13.60;99.90;;;;;;4915983;29;20666;-86
2022/09/11 00:57:08;;;;;;;37.67;26.38;;;13.70;99.90;;;;;;4915188;29;20054;-86
2022/09/11 00:59:38;;;;;;;31.00;23.60;;;13.80;99.90;;;;;;4899774;29;20131;-86
2022/09/11 01:02:05;;;;;;;30.23;23.05;;;13.90;99.90;;;;;;4915983;29;20058;-86
2022/09/11 01:04:32;;;;;;;32.33;24.05;;;13.80;99.90;;;;;;4914187;29;20070;-86
2022/09/11 01:07:00;;;;;;;31.30;22.58;;;13.80;99.90;;;;;;4916027;29;20387;-86
2022/09/11 01:09:28;;;;;;;23.63;19.25;;;13.80;99.90;;;;;;4915154;29;20098;-86
2022/09/11 01:12:05;;;;;;;20.17;17.15;;;13.80;99.90;;;;;;4915497;29;20040;-87
2022/09/11 01:14:53;;;;;;;18.98;14.40;;;13.70;99.90;;;;;;4915531;29;20091;-86
2022/09/11 01:17:29;;;;;;;16.63;13.23;;;13.70;99.90;;;;;;4900520;29;20388;-87
2022/09/11 01:20:08;;;;;;;18.05;14.30;;;13.60;99.90;;;;;;4914297;29;20050;-87
2022/09/11 01:23:00;;;;;;;20.13;15.40;;;13.60;99.90;;;;;;4896576;29;20070;-87
2022/09/11 01:25:36;;;;;;;27.20;17.00;;;13.50;99.90;;;;;;4927204;29;20040;-86
2022/09/11 01:28:12;;;;;;;22.30;14.00;;;13.50;99.90;;;;;;4912722;29;20052;-85
2022/09/11 01:30:46;;;;;;;17.30;12.88;;;13.50;99.90;;;;;;4896898;29;20354;-87
2022/09/11 01:33:16;;;;;;;13.27;11.02;;;13.50;99.90;;;;;;4895844;29;20056;-87
2022/09/11 01:35:49;;;;;;;13.13;10.30;;;13.40;99.90;;;;;;4911039;29;20047;-86
2022/09/11 01:38:37;;;;;;;12.68;10.68;;;13.40;99.90;;;;;;4896220;29;20130;-86
2022/09/11 01:41:11;;;;;;;12.38;8.07;;;13.40;99.90;;;;;;4894901;29;20064;-86
2022/09/11 01:43:50;;;;;;;19.23;10.10;;;13.30;99.90;;;;;;4896388;29;20059;-87
2022/09/11 01:46:21;;;;;;;14.35;9.70;;;13.30;99.90;;;;;;4895465;29;20063;-87
2022/09/11 01:48:51;;;;;;;19.77;15.48;;;13.30;99.90;;;;;;4896371;29;20392;-87
2022/09/11 01:51:23;;;;;;;17.92;12.32;;;13.30;99.90;;;;;;4880280;29;20051;-87
2022/09/11 01:53:50;;;;;;;16.75;11.70;;;13.30;99.90;;;;;;4895173;29;20127;-86
2022/09/11 01:56:22;;;;;;;15.60;9.05;;;13.30;99.90;;;;;;4911928;29;20063;-86
2022/09/11 01:58:54;;;;;;;14.65;10.00;;;13.30;99.90;;;;;;4896201;29;20048;-87
2022/09/11 02:01:25;;;;;;;21.27;10.35;;;13.40;99.90;;;;;;4894643;29;20122;-86
2022/09/11 02:04:03;;;;;;;12.15;6.43;;;13.20;99.90;;;;;;4911805;29;20530;-87
2022/09/11 02:06:41;;;;;;;20.25;11.85;;;13.20;99.90;;;;;;4910895;29;20063;-86
2022/09/11 02:09:10;;;;;;;14.32;10.93;;;13.20;99.90;;;;;;4894912;29;20131;-87
2022/09/11 02:11:39;;;;;;;15.57;10.65;;;13.10;99.90;;;;;;4911470;29;20044;-87
2022/09/11 02:14:28;;;;;;;16.55;11.27;;;13.10;99.90;;;;;;4895224;29;20052;-87
2022/09/11 02:17:35;;;;;;;26.85;16.25;;;13.10;99.90;;;;;;4896132;29;20048;-87
2022/09/11 02:20:01;;;;;;;22.25;15.65;;;13.20;99.90;;;;;;4895253;29;20104;-87
2022/09/11 02:22:27;;;;;;;107.43;18.40;;;13.30;99.90;;;;;;4894537;29;20055;-86
2022/09/11 02:24:53;;;;;;;36.10;14.15;;;13.30;99.90;;;;;;4880308;29;20064;-86
2022/09/11 02:27:24;;;;;;;18.88;13.60;;;13.30;99.90;;;;;;4895732;29;20059;-87
2022/09/11 02:29:52;;;;;;;17.67;12.82;;;13.30;99.90;;;;;;4895289;29;20401;-87
2022/09/11 02:32:19;;;;;;;53.72;14.82;;;13.40;99.90;;;;;;4895765;29;20088;-87
2022/09/11 02:34:47;;;;;;;16.55;11.40;;;13.20;99.90;;;;;;4894736;29;20063;-87
2022/09/11 02:37:34;;;;;;;16.42;12.77;;;13.20;99.90;;;;;;4894757;29;20060;-87
2022/09/11 02:40:25;;;;;;;96.05;11.43;;;13.20;99.90;;;;;;4911169;29;20051;-87
2022/09/11 02:43:17;;;;;;;42.17;9.57;;;13.10;99.90;;;;;;4879277;29;20398;-87
2022/09/11 02:46:13;;;;;;;11.43;9.20;;;13.10;99.90;;;;;;4911136;29;20423;-86
2022/09/11 02:49:01;;;;;;;14.73;10.73;;;13.00;99.90;;;;;;4894921;29;20489;-87
2022/09/11 02:51:46;;;;;;;16.23;11.77;;;13.00;99.90;;;;;;4909723;29;20067;-87
2022/09/11 02:54:24;;;;;;;16.13;10.52;;;13.00;99.90;;;;;;4895332;29;20129;-87
2022/09/11 02:57:01;;;;;;;17.77;10.07;;;13.00;99.90;;;;;;4910770;29;20459;-86
2022/09/11 02:59:37;;;;;;;14.35;10.05;;;13.20;99.90;;;;;;4894393;29;20044;-87
2022/09/11 03:02:08;;;;;;;30.58;8.13;;;12.90;99.90;;;;;;4895114;29;20073;-87
2022/09/11 03:04:35;;;;;;;63.50;8.65;;;12.90;99.90;;;;;;4893969;29;20039;-87
2022/09/11 03:07:02;;;;;;;14.38;5.63;;;12.90;99.90;;;;;;4876954;29;20052;-87
2022/09/11 03:09:28;;;;;;;63.17;6.82;;;12.80;99.90;;;;;;4891760;29;20053;-87
2022/09/11 03:11:54;;;;;;;6.80;4.00;;;12.80;99.90;;;;;;4876801;29;20108;-87
2022/09/11 03:14:20;;;;;;;66.07;7.60;;;12.70;99.90;;;;;;4876045;29;20056;-86
2022/09/11 03:16:45;;;;;;;9.35;5.65;;;12.70;99.90;;;;;;4861443;29;20063;-86
2022/09/11 03:19:11;;;;;;;10.18;7.30;;;12.90;99.90;;;;;;4875605;29;20059;-87
2022/09/11 03:21:37;;;;;;;10.70;7.25;;;12.90;99.90;;;;;;4880892;29;20047;-87
2022/09/11 03:24:04;;;;;;;66.97;9.77;;;12.70;99.90;;;;;;4876360;29;20061;-87
2022/09/11 03:26:32;;;;;;;13.63;9.02;;;12.60;99.90;;;;;;4890690;29;20049;-86
2022/09/11 03:28:58;;;;;;;16.35;8.25;;;12.70;99.90;;;;;;4876760;29;20070;-86
2022/09/11 03:31:24;;;;;;;10.77;6.35;;;12.60;99.90;;;;;;4890773;29;20052;-86
2022/09/11 03:33:50;;;;;;;10.18;6.18;;;12.60;99.90;;;;;;4876446;29;20056;-87
2022/09/11 03:36:16;;;;;;;6.38;4.95;;;12.60;99.90;;;;;;4890896;29;20098;-87
2022/09/11 03:38:44;;;;;;;6.53;4.00;;;12.60;99.90;;;;;;4875417;29;20509;-86
2022/09/11 03:41:09;;;;;;;19.83;5.95;;;12.50;99.90;;;;;;4884804;29;20040;-88
2022/09/11 03:43:36;;;;;;;8.75;5.65;;;12.60;99.90;;;;;;4894464;29;20548;-87
2022/09/11 03:46:02;;;;;;;8.80;7.22;;;12.50;99.90;;;;;;4894296;29;20056;-86
2022/09/11 03:48:28;;;;;;;10.90;7.22;;;12.50;99.90;;;;;;4909821;29;20062;-86
2022/09/11 03:50:54;;;;;;;11.73;8.55;;;12.40;99.90;;;;;;4894335;29;20108;-87
2022/09/11 03:53:20;;;;;;;93.50;14.85;;;12.40;99.90;;;;;;4893835;29;20481;-86
2022/09/11 03:55:48;;;;;;;10.10;6.65;;;12.50;99.90;;;;;;4893929;29;20044;-87
2022/09/11 03:58:15;;;;;;;11.25;7.15;;;12.50;99.90;;;;;;4910271;29;20115;-87
2022/09/11 04:00:42;;;;;;;43.63;9.95;;;12.50;99.90;;;;;;4893471;29;20036;-87
2022/09/11 04:03:10;;;;;;;11.73;7.05;;;12.50;99.90;;;;;;4894617;29;20048;-86
2022/09/11 04:05:37;;;;;;;11.30;8.98;;;12.50;99.90;;;;;;4893249;29;20107;-87
2022/09/11 04:08:03;;;;;;;8.23;6.45;;;12.50;99.90;;;;;;4894007;29;20052;-87
2022/09/11 04:10:31;;;;;;;7.88;5.80;;;12.60;99.90;;;;;;4893756;29;20040;-86
2022/09/11 04:12:57;;;;;;;12.88;9.25;;;12.80;99.90;;;;;;4910204;29;20084;-86
2022/09/11 04:15:23;;;;;;;11.00;8.50;;;12.60;99.90;;;;;;4909135;29;20091;-87
2022/09/11 04:17:48;;;;;;;10.63;8.15;;;12.60;99.90;;;;;;4896897;29;20043;-86
2022/09/11 04:20:14;;;;;;;9.48;7.13;;;12.90;99.90;;;;;;4897155;29;20044;-87
2022/09/11 04:22:40;;;;;;;11.02;8.20;;;12.70;99.90;;;;;;4912688;29;20102;-86
2022/09/11 04:25:06;;;;;;;13.57;10.55;;;12.60;99.90;;;;;;4929491;29;20154;-87
2022/09/11 04:27:32;;;;;;;13.88;9.68;;;12.60;99.90;;;;;;4913632;29;20044;-86
2022/09/11 04:29:58;;;;;;;14.68;10.52;;;12.60;99.90;;;;;;4892800;29;20323;-86
2022/09/11 04:32:23;;;;;;;13.98;7.78;;;12.60;99.90;;;;;;4878462;29;20518;-85
2022/09/11 04:34:49;;;;;;;10.52;7.60;;;12.60;99.90;;;;;;4892805;29;20068;-86
2022/09/11 04:37:15;;;;;;;9.30;6.88;;;12.60;99.90;;;;;;4879144;29;20058;-86
2022/09/11 04:39:41;;;;;;;10.80;6.50;;;12.60;99.90;;;;;;4878415;29;20040;-86
2022/09/11 04:42:09;;;;;;;10.13;7.10;;;12.50;99.90;;;;;;4878134;29;20049;-86
2022/09/11 04:44:35;;;;;;;48.05;10.10;;;12.50;99.90;;;;;;4878644;29;20052;-86
2022/09/11 04:47:01;;;;;;;19.42;11.48;;;12.40;99.90;;;;;;4894108;29;20136;-86
2022/09/11 04:49:27;;;;;;;28.02;17.70;;;12.50;99.90;;;;;;4876840;29;20045;-86
2022/09/11 04:51:53;;;;;;;30.92;18.33;;;12.60;99.90;;;;;;4879140;29;20054;-86
2022/09/11 04:54:21;;;;;;;19.60;13.35;;;12.70;99.90;;;;;;4893692;29;20158;-85
2022/09/11 04:56:47;;;;;;;17.23;12.25;;;12.70;99.90;;;;;;4878105;29;20044;-86
2022/09/11 04:59:16;;;;;;;14.55;10.63;;;12.70;99.90;;;;;;4878109;29;20048;-85
2022/09/11 05:01:42;;;;;;;12.77;10.20;;;12.80;99.90;;;;;;4894478;29;20060;-86
2022/09/11 05:04:11;;;;;;;13.85;10.20;;;12.90;99.90;;;;;;4877127;29;20113;-85
2022/09/11 05:06:37;;;;;;;12.48;9.77;;;12.80;99.90;;;;;;4909066;29;20044;-85
2022/09/11 05:09:05;;;;;;;18.25;9.25;;;12.80;99.90;;;;;;4896556;29;20048;-85
2022/09/11 05:11:32;;;;;;;11.32;8.80;;;13.20;99.90;;;;;;4896217;29;20048;-86
2022/09/11 05:13:58;;;;;;;9.50;7.60;;;13.10;99.90;;;;;;4928574;29;20044;-85
2022/09/11 05:16:25;;;;;;;10.25;7.55;;;12.80;99.90;;;;;;4896418;29;20060;-85
2022/09/11 05:18:52;;;;;;;68.32;16.67;;;12.80;99.90;;;;;;4912334;29;20520;-85
2022/09/11 05:21:21;;;;;;;15.93;9.82;;;12.80;99.90;;;;;;4895381;29;20050;-86
2022/09/11 05:23:48;;;;;;;14.65;9.55;;;12.80;99.90;;;;;;4912205;29;20048;-85
2022/09/11 05:26:17;;;;;;;9.10;6.57;;;12.90;99.90;;;;;;4911195;29;20059;-85
2022/09/11 05:28:43;;;;;;;12.27;6.00;;;13.10;99.90;;;;;;4895536;29;20040;-85
2022/09/11 05:31:14;;;;;;;9.10;6.28;;;12.90;99.90;;;;;;4926724;29;20107;-85
2022/09/11 05:33:40;;;;;;;9.20;6.60;;;12.80;99.90;;;;;;4896612;29;20048;-85
2022/09/11 05:36:06;;;;;;;8.25;6.72;;;12.80;99.90;;;;;;4895228;29;20564;-85
2022/09/11 05:38:35;;;;;;;11.10;8.05;;;12.80;99.90;;;;;;4895568;29;20052;-85
2022/09/11 05:41:04;;;;;;;15.48;9.25;;;12.80;99.90;;;;;;4911785;29;20103;-86
2022/09/11 05:43:31;;;;;;;11.88;9.05;;;12.80;99.90;;;;;;4881080;29;20051;-85
2022/09/11 05:45:58;;;;;;;12.23;8.38;;;12.90;99.90;;;;;;4879605;29;20103;-85
2022/09/11 05:48:27;;;;;;;12.55;7.80;;;12.90;99.90;;;;;;4911682;29;20556;-84
2022/09/11 05:50:55;;;;;;;8.98;7.95;;;12.90;99.90;;;;;;4879859;29;20595;-85
2022/09/11 05:53:22;;;;;;;10.75;8.38;;;13.00;99.90;;;;;;4893118;29;20103;-85
2022/09/11 05:55:48;;;;;;;8.00;6.30;;;12.90;99.90;;;;;;4908501;29;20116;-85
2022/09/11 05:58:16;;;;;;;8.55;7.13;;;13.00;99.90;;;;;;4894393;29;20104;-85
2022/09/11 06:00:45;;;;;;;26.00;8.82;;;13.00;99.90;;;;;;4911133;29;20052;-85
2022/09/11 06:03:13;;;;;;;8.70;7.22;;;13.10;99.90;;;;;;4910857;29;20515;-86
2022/09/11 06:05:40;;;;;;;9.05;7.40;;;13.10;99.90;;;;;;4926666;29;20059;-85
2022/09/11 06:08:08;;;;;;;11.77;7.93;;;13.20;99.90;;;;;;4925982;29;20100;-85
2022/09/11 06:10:34;;;;;;;10.82;9.07;;;13.20;99.90;;;;;;4907499;29;20040;-85
2022/09/11 06:13:00;;;;;;;14.07;10.82;;;13.30;99.90;;;;;;4900815;29;20059;-85
2022/09/11 06:15:26;;;;;;;14.68;10.30;;;13.30;99.90;;;;;;4909282;29;20044;-86
2022/09/11 06:17:52;;;;;;;18.88;13.48;;;13.40;99.90;;;;;;4908914;29;20393;-85
2022/09/11 06:20:18;;;;;;;22.02;15.07;;;13.50;99.90;;;;;;4898691;29;20100;-86
2022/09/11 06:23:27;;;;;;;19.83;14.93;;;13.50;99.90;;;;;;4922447;29;20056;-96
2022/09/11 06:25:53;;;;;;;20.02;13.90;;;13.60;99.90;;;;;;4873755;29;20048;-86
2022/09/11 06:28:22;;;;;;;31.02;19.48;;;13.80;99.90;;;;;;4916584;29;20493;-85
2022/09/11 06:30:49;;;;;;;19.60;13.68;;;13.80;99.90;;;;;;4885929;29;20040;-86
2022/09/11 06:33:15;;;;;;;23.85;17.30;;;14.00;99.90;;;;;;4900028;29;20068;-86
2022/09/11 06:35:40;;;;;;;20.52;14.55;;;14.10;99.90;;;;;;4901086;29;20049;-87
2022/09/11 06:38:06;;;;;;;25.75;18.60;;;14.20;99.90;;;;;;4901050;29;20045;-86
2022/09/11 06:40:31;;;;;;;20.30;15.52;;;14.30;99.90;;;;;;4899477;29;20048;-85
2022/09/11 06:42:57;;;;;;;26.88;16.27;;;14.50;99.90;;;;;;4904200;29;20044;-85
2022/09/11 06:45:23;;;;;;;20.45;15.52;;;14.70;99.90;;;;;;4899525;29;20087;-86
2022/09/11 06:47:49;;;;;;;21.08;15.55;;;14.70;99.90;;;;;;4905523;29;20083;-86
2022/09/11 06:50:15;;;;;;;22.15;15.40;;;14.80;99.90;;;;;;4917461;29;20106;-86
2022/09/11 06:52:41;;;;;;;24.95;16.25;;;14.90;99.90;;;;;;4916877;29;20493;-86
2022/09/11 06:55:12;;;;;;;22.63;17.33;;;15.00;99.90;;;;;;4870120;29;20051;-86
2022/09/11 06:57:40;;;;;;;25.75;16.85;;;15.10;99.90;;;;;;4901035;29;20048;-86
2022/09/11 07:00:06;;;;;;;20.92;16.25;;;15.20;99.90;;;;;;4900533;29;20137;-85
2022/09/11 07:02:32;;;;;;;21.48;14.55;;;15.20;99.90;;;;;;4894690;29;20521;-87
2022/09/11 07:04:59;;;;;;;23.02;15.85;;;15.30;99.90;;;;;;4901329;29;20044;-86
2022/09/11 07:07:24;;;;;;;21.77;15.40;;;15.40;99.90;;;;;;4916616;29;20070;-87
2022/09/11 07:09:50;;;;;;;23.35;15.07;;;15.60;99.90;;;;;;4908627;29;20551;-86
2022/09/11 07:12:16;;;;;;;24.75;13.98;;;15.70;99.90;;;;;;4910613;29;20048;-87
2022/09/11 07:14:41;;;;;;;19.77;14.20;;;15.80;99.90;;;;;;4925997;29;20138;-87
2022/09/11 07:17:07;;;;;;;20.98;14.00;;;15.80;99.90;;;;;;4910452;29;20075;-87
2022/09/11 07:19:33;;;;;;;17.20;12.50;;;15.90;99.90;;;;;;4910966;29;20051;-87
2022/09/11 07:21:58;;;;;;;18.77;12.30;;;16.10;99.90;;;;;;4911422;29;20048;-87
2022/09/11 07:25:06;;;;;;;16.80;11.68;;;16.10;99.90;;;;;;4925928;29;20052;-96
2022/09/11 07:27:32;;;;;;;14.88;11.25;;;16.20;99.90;;;;;;4861744;29;20573;-94
2022/09/11 07:30:09;;;;;;;16.20;10.57;;;16.30;99.90;;;;;;4863222;29;20045;-96
2022/09/11 07:32:37;;;;;;;12.93;9.48;;;16.30;99.90;;;;;;4864124;29;20072;-94
2022/09/11 07:35:11;;;;;;;15.65;9.30;;;16.50;99.90;;;;;;4865566;29;20049;-93
2022/09/11 07:37:37;;;;;;;15.23;8.23;;;16.70;99.90;;;;;;4861591;29;20052;-90
2022/09/11 07:40:04;;;;;;;14.48;7.50;;;16.80;99.90;;;;;;4864544;29;20071;-90
2022/09/11 07:42:29;;;;;;;15.23;7.53;;;16.80;99.90;;;;;;4862437;29;20606;-90
2022/09/11 07:44:55;;;;;;;13.18;7.35;;;16.90;99.90;;;;;;4862420;29;20124;-90
2022/09/11 07:47:21;;;;;;;10.45;6.50;;;17.00;99.90;;;;;;4880779;29;20489;-90
2022/09/11 07:49:47;;;;;;;12.57;6.78;;;17.10;99.90;;;;;;4881010;29;20108;-91
2022/09/11 07:52:14;;;;;;;7.43;5.50;;;17.10;99.90;;;;;;4880917;29;20408;-90
2022/09/11 07:54:40;;;;;;;11.25;5.10;;;17.20;99.90;;;;;;4856324;29;20490;-90
2022/09/11 07:57:06;;;;;;;11.27;5.22;;;17.30;99.90;;;;;;4865081;29;20065;-90
2022/09/11 07:59:31;;;;;;;16.02;4.90;;;17.40;99.90;;;;;;4858779;29;20140;-90
2022/09/11 08:01:58;;;;;;;10.95;4.57;;;17.50;99.90;;;;;;4862406;29;20060;-90
2022/09/11 08:04:24;;;;;;;15.45;4.78;;;17.50;99.90;;;;;;4869882;29;20044;-91
2022/09/11 08:06:49;;;;;;;7.63;3.88;;;17.60;99.90;;;;;;4881069;29;20041;-90
2022/09/11 08:09:15;;;;;;;11.98;3.55;;;17.70;99.90;;;;;;4868732;29;20088;-90
2022/09/11 08:11:44;;;;;;;9.02;3.47;;;17.60;99.90;;;;;;4851554;29;20033;-89
2022/09/11 08:14:12;;;;;;;9.63;3.63;;;17.70;99.90;;;;;;4866130;29;20135;-89
2022/09/11 08:16:38;;;;;;;7.78;3.35;;;17.70;99.90;;;;;;4857967;29;20113;-90
2022/09/11 08:19:05;;;;;;;7.93;3.30;;;17.70;99.90;;;;;;4858973;29;20083;-90
2022/09/11 08:21:31;;;;;;;9.52;3.13;;;17.80;99.90;;;;;;4858662;29;20045;-90
2022/09/11 08:23:57;;;;;;;7.70;3.13;;;18.00;99.90;;;;;;4843611;29;20052;-89
2022/09/11 08:26:25;;;;;;;7.43;2.90;;;18.10;99.90;;;;;;4844726;29;20061;-90
2022/09/11 08:28:52;;;;;;;6.47;2.45;;;18.40;99.90;;;;;;4843477;29;20112;-89
2022/09/11 08:31:20;;;;;;;7.72;2.13;;;18.50;99.90;;;;;;4843504;29;20053;-93
2022/09/11 08:33:48;;;;;;;9.95;3.10;;;18.60;99.90;;;;;;4844085;29;20085;-91
2022/09/11 08:36:14;;;;;;;7.43;2.35;;;18.70;99.90;;;;;;4843780;29;20056;-90
2022/09/11 08:38:41;;;;;;;7.28;2.50;;;18.90;99.90;;;;;;4843908;29;20382;-89
2022/09/11 08:41:35;;;;;;;6.68;2.08;;;19.00;99.90;;;;;;4851851;29;20549;-92
2022/09/11 08:44:01;;;;;;;6.78;2.25;;;19.10;99.90;;;;;;4861969;29;20056;-93
2022/09/11 08:46:38;;;;;;;8.75;2.50;;;19.20;99.90;;;;;;4858755;29;20049;-92
2022/09/11 08:49:23;;;;;;;8.75;2.45;;;19.40;99.90;;;;;;4876634;29;20053;-91
2022/09/11 08:51:51;;;;;;;5.95;2.05;;;19.50;99.90;;;;;;4877638;29;20139;-91
2022/09/11 08:54:26;;;;;;;7.03;2.08;;;19.60;99.90;;;;;;4877723;29;20056;-95
2022/09/11 08:56:58;;;;;;;13.00;3.38;;;19.70;99.90;;;;;;4875980;29;20498;-93
2022/09/11 08:59:37;;;;;;;7.07;2.30;;;19.70;99.90;;;;;;4879006;29;20045;-94
2022/09/11 09:02:30;;;;;;;5.63;1.50;;;19.80;99.90;;;;;;4877534;29;20201;-94
2022/09/11 09:05:17;;;;;;;5.30;1.15;;;19.80;99.90;;;;;;4880621;29;20047;-91
2022/09/11 09:08:03;;;;;;;5.47;1.83;;;19.80;99.90;;;;;;4881371;29;20045;-91
2022/09/11 09:10:49;;;;;;;7.93;1.80;;;19.90;99.90;;;;;;4880539;29;20087;-91
2022/09/11 09:13:29;;;;;;;4.97;1.73;;;20.00;99.90;;;;;;4881232;29;20482;-90
2022/09/11 09:16:10;;;;;;;5.53;1.65;;;20.10;99.90;;;;;;4865360;29;20116;-91
2022/09/11 09:18:42;;;;;;;5.13;1.60;;;20.30;99.90;;;;;;4880774;29;20053;-91
2022/09/11 09:21:26;;;;;;;4.90;1.50;;;20.40;99.90;;;;;;4881324;29;20553;-91
2022/09/11 09:23:55;;;;;;;5.53;1.38;;;20.50;99.90;;;;;;4880200;29;20542;-91
2022/09/11 09:26:27;;;;;;;3.47;0.90;;;20.50;99.90;;;;;;4881227;29;20140;-91
2022/09/11 09:28:56;;;;;;;6.57;1.35;;;20.60;99.90;;;;;;4850622;29;20401;-91
2022/09/11 09:31:27;;;;;;;8.43;1.60;;;20.70;99.90;;;;;;4865874;29;20053;-91
2022/09/11 09:34:01;;;;;;;4.07;1.10;;;20.80;99.90;;;;;;4862181;29;20128;-92
2022/09/11 09:36:35;;;;;;;6.82;1.25;;;21.00;99.90;;;;;;4862619;29;20102;-94
2022/09/11 09:39:13;;;;;;;6.38;1.20;;;21.20;99.90;;;;;;4846720;29;20140;-90
2022/09/11 09:41:57;;;;;;;5.80;1.10;;;21.40;99.90;;;;;;4846298;29;20106;-91
2022/09/11 09:44:37;;;;;;;2.85;0.90;;;21.50;99.90;;;;;;4846308;29;20049;-91
2022/09/11 09:47:03;;;;;;;3.38;0.90;;;21.40;99.90;;;;;;4846144;29;20049;-91
2022/09/11 09:49:35;;;;;;;4.10;0.90;;;21.30;99.90;;;;;;4861464;29;20052;-92
2022/09/11 09:52:18;;;;;;;5.10;0.90;;;21.20;99.90;;;;;;4861891;29;20136;-91
2022/09/11 09:55:00;;;;;;;5.40;1.05;;;21.10;99.90;;;;;;4861588;29;20070;-92
2022/09/11 09:57:31;;;;;;;4.82;1.00;;;21.00;99.90;;;;;;4861823;29;20076;-90
2022/09/11 10:00:09;;;;;;;9.02;1.00;;;20.90;99.90;;;;;;4861540;29;20050;-91
2022/09/11 10:02:39;;;;;;;3.20;0.80;;;20.80;99.90;;;;;;4847023;29;20588;-92
2022/09/11 10:05:19;;;;;;;4.93;1.20;;;20.70;99.90;;;;;;4865906;29;20440;-94
2022/09/11 10:07:46;;;;;;;7.60;0.93;;;20.50;99.90;;;;;;4866008;29;20049;-92
2022/09/11 10:10:21;;;;;;;4.18;0.98;;;20.30;99.90;;;;;;4864302;29;20049;-91
2022/09/11 10:12:47;;;;;;;4.40;0.77;;;20.10;99.90;;;;;;4864300;29;20049;-91
2022/09/11 10:15:21;;;;;;;4.30;0.98;;;19.90;99.90;;;;;;4865353;29;20049;-90
2022/09/11 10:17:47;;;;;;;5.05;1.00;;;19.70;99.90;;;;;;4864567;29;20049;-89
2022/09/11 10:20:21;;;;;;;13.07;1.73;;;19.60;99.90;;;;;;4861899;29;20144;-91
2022/09/11 10:22:49;;;;;;;4.97;1.40;;;19.40;99.90;;;;;;4876583;29;20068;-92
2022/09/11 10:25:18;;;;;;;12.32;2.10;;;19.30;99.90;;;;;;4862409;29;20056;-93
2022/09/11 10:27:49;;;;;;;6.47;1.58;;;19.10;99.90;;;;;;4862241;29;20057;-93
2022/09/11 10:30:31;;;;;;;7.28;1.92;;;19.00;99.90;;;;;;4863206;29;20041;-93
2022/09/11 10:32:59;;;;;;;;;;;18.90;99.90;;;;;;4864578;29;20065;-93
2022/09/11 10:35:28;;;;;;;12.75;2.60;;;18.80;99.90;;;;;;4864616;29;19928;-93
2022/09/11 10:38:04;;;;;;;7.45;2.65;;;18.70;99.90;;;;;;4864360;29;20053;-92
2022/09/11 10:40:30;;;;;;;6.55;2.53;;;18.80;99.90;;;;;;4863846;29;20703;-93
2022/09/11 10:42:56;;;;;;;8.60;2.42;;;18.80;99.90;;;;;;4864781;29;20099;-93
2022/09/11 10:45:22;;;;;;;6.95;2.20;;;18.80;99.90;;;;;;4864393;29;20168;-94
2022/09/11 10:47:48;;;;;;;5.43;2.38;;;18.90;99.90;;;;;;4864359;29;20728;-93
2022/09/11 10:50:17;;;;;;;4.80;2.30;;;19.00;99.90;;;;;;4864163;29;20136;-93
2022/09/11 10:53:11;;;;;;;8.00;2.40;;;19.00;99.90;;;;;;4864259;29;20053;-93
2022/09/11 10:55:47;;;;;;;6.53;2.33;;;19.10;99.90;;;;;;4866242;29;20083;-93
2022/09/11 10:58:17;;;;;;;10.05;2.60;;;19.20;99.90;;;;;;4864720;29;20051;-93
2022/09/11 11:00:43;;;;;;;8.20;2.28;;;19.20;99.90;;;;;;4865734;29;20109;-94
2022/09/11 11:03:15;;;;;;;4.25;1.83;;;19.20;99.90;;;;;;4863683;29;20048;-94
2022/09/11 11:06:02;;;;;;;9.13;2.50;;;19.30;99.90;;;;;;4864137;29;20493;-94
2022/09/11 11:08:45;;;;;;;6.95;1.98;;;19.40;99.90;;;;;;4863758;29;20313;-94
2022/09/11 11:11:27;;;;;;;6.63;2.00;;;19.50;99.90;;;;;;4863428;29;20158;-93
2022/09/11 11:14:16;;;;;;;8.70;2.00;;;19.50;99.90;;;;;;4864016;29;20388;-94
2022/09/11 11:17:17;;;;;;;6.75;1.75;;;19.60;99.90;;;;;;4863909;29;20049;-95
2022/09/11 11:20:10;;;;;;;8.98;1.80;;;19.70;99.90;;;;;;4861937;29;20509;-93
2022/09/11 11:22:55;;;;;;;4.55;2.00;;;19.70;99.90;;;;;;4863987;29;20059;-95
2022/09/11 11:25:31;;;;;;;5.70;1.70;;;19.70;99.90;;;;;;4863788;29;20056;-95
2022/09/11 11:28:22;;;;;;;5.85;1.77;;;19.90;99.90;;;;;;4862684;29;20052;-95
2022/09/11 11:31:08;;;;;;;4.47;1.83;;;19.90;99.90;;;;;;4859724;29;20509;-95
2022/09/11 11:33:58;;;;;;;6.40;2.10;;;20.10;99.90;;;;;;4845669;29;20115;-94
2022/09/11 11:36:39;;;;;;;5.72;1.73;;;20.40;99.90;;;;;;4860490;29;20056;-94
2022/09/11 11:39:21;;;;;;;8.07;2.20;;;20.70;99.90;;;;;;4861119;29;20507;-96
2022/09/11 11:41:57;;;;;;;6.65;2.08;;;20.90;99.90;;;;;;4860654;29;20057;-92
2022/09/11 11:44:35;;;;;;;3.92;1.42;;;21.00;99.90;;;;;;4860053;29;20054;-93
2022/09/11 11:47:05;;;;;;;4.82;1.45;;;21.30;99.90;;;;;;4860011;29;20064;-95
2022/09/11 11:50:23;;;;;;;5.95;1.20;;;21.50;99.90;;;;;;4860693;29;20049;-95
2022/09/11 11:53:01;;;;;;;3.33;1.20;;;21.60;99.90;;;;;;4860538;29;20512;-94
2022/09/11 11:55:41;;;;;;;8.95;1.33;;;21.80;99.90;;;;;;4860428;29;20451;-92
2022/09/11 11:58:23;;;;;;;4.63;1.00;;;21.90;99.90;;;;;;4860618;29;20060;-92
2022/09/11 12:00:55;;;;;;;5.25;0.88;;;21.90;99.90;;;;;;4844561;29;20061;-91
2022/09/11 12:03:26;;;;;;;3.50;0.98;;;21.90;99.90;;;;;;4860221;29;20049;-92
2022/09/11 12:05:53;;;;;;;4.05;0.98;;;22.00;99.90;;;;;;4845081;29;20063;-91
2022/09/11 12:08:18;;;;;;;4.80;0.90;;;21.90;99.90;;;;;;4844563;29;20053;-92
2022/09/11 12:10:55;;;;;;;5.65;1.05;;;22.00;99.90;;;;;;4844475;29;20053;-92
2022/09/11 12:13:28;;;;;;;7.00;1.27;;;22.20;99.90;;;;;;4860267;29;20146;-92
2022/09/11 12:16:23;;;;;;;4.80;1.00;;;22.30;99.90;;;;;;4860242;29;20106;-93
2022/09/11 12:19:06;;;;;;;3.47;0.65;;;22.40;99.90;;;;;;4860333;29;20064;-92
2022/09/11 12:21:35;;;;;;;3.05;0.85;;;22.40;99.90;;;;;;4845445;29;20049;-92
2022/09/11 12:24:01;;;;;;;3.55;0.93;;;22.30;99.90;;;;;;4846898;29;20054;-91
2022/09/11 12:26:28;;;;;;;5.93;1.08;;;22.20;99.90;;;;;;4844513;29;20057;-91
2022/09/11 12:29:11;;;;;;;5.68;1.20;;;22.10;99.90;;;;;;4859783;29;20148;-92
2022/09/11 12:31:49;;;;;;;2.45;0.70;;;22.00;99.90;;;;;;4845178;29;20494;-92
2022/09/11 12:34:17;;;;;;;4.30;1.02;;;21.90;99.90;;;;;;4845978;29;20045;-92
2022/09/11 12:36:52;;;;;;;3.88;0.70;;;21.90;99.90;;;;;;4860055;29;20061;-93
2022/09/11 12:39:28;;;;;;;2.92;0.60;;;21.80;99.90;;;;;;4862441;29;20045;-93
2022/09/11 12:42:21;;;;;;;4.22;1.00;;;21.70;99.90;;;;;;4876491;29;20052;-93
2022/09/11 12:44:47;;;;;;;3.85;1.10;;;21.70;99.90;;;;;;4866358;29;20041;-94
2022/09/11 12:47:22;;;;;;;4.78;1.10;;;21.60;99.90;;;;;;4866252;29;20060;-92
2022/09/11 12:50:03;;;;;;;7.22;1.20;;;21.60;99.90;;;;;;4864157;29;20049;-94
2022/09/11 12:52:39;;;;;;;5.57;2.20;;;21.70;99.90;;;;;;4865062;29;20052;-93
2022/09/11 12:55:32;;;;;;;11.52;2.92;;;21.90;99.90;;;;;;4866719;29;20049;-91
2022/09/11 12:58:05;;;;;;;11.38;2.70;;;21.80;99.90;;;;;;4866884;29;20045;-91
2022/09/11 13:00:58;;;;;;;6.82;3.40;;;21.60;99.90;;;;;;5082391;23;20055;-96